createdAt,value
2023-04-10T00:01:26.395Z,73.98
2023-04-10T00:03:53.956Z,73.39
2023-04-10T00:06:21.312Z,72.63
2023-04-10T00:08:48.229Z,73.09
2023-04-10T00:11:15.363Z,72.72
2023-04-10T00:13:42.315Z,73.69
2023-04-10T00:16:09.425Z,73.11
2023-04-10T00:18:36.502Z,73.10
2023-04-10T00:21:04.075Z,72.25
2023-04-10T00:23:35.017Z,75.63
2023-04-10T00:26:02.235Z,76.21
2023-04-10T00:28:29.319Z,76.22
2023-04-10T00:30:56.306Z,75.13
2023-04-10T00:33:23.354Z,75.77
2023-04-10T00:35:50.579Z,75.54
2023-04-10T00:38:17.651Z,75.20
2023-04-10T00:40:44.626Z,73.99
2023-04-10T00:43:12.259Z,73.08
2023-04-10T00:45:39.727Z,72.68
2023-04-10T00:48:06.871Z,73.34
2023-04-10T00:50:34.300Z,73.06
2023-04-10T00:53:01.295Z,73.26
2023-04-10T00:55:28.553Z,73.33
2023-04-10T00:57:56.791Z,73.59
2023-04-10T01:00:24.377Z,72.77
2023-04-10T01:02:57.765Z,73.07
2023-04-10T01:05:32.375Z,72.92
2023-04-10T01:08:17.494Z,74.48
2023-04-10T01:10:51.735Z,73.95
2023-04-10T01:13:50.265Z,74.02
2023-04-10T01:16:25.372Z,75.10
2023-04-10T01:19:24.582Z,75.10
2023-04-10T01:22:16.573Z,75.40
2023-04-10T01:25:15.251Z,77.60
2023-04-10T01:28:13.554Z,81.42
2023-04-10T01:30:41.515Z,85.72
2023-04-10T01:33:12.968Z,84.33
2023-04-10T01:35:43.295Z,84.09
2023-04-10T01:38:12.146Z,83.76
2023-04-10T01:40:42.501Z,89.23
2023-04-10T01:43:12.172Z,86.66
2023-04-10T01:45:42.159Z,87.14
2023-04-10T01:48:09.267Z,88.44
2023-04-10T01:50:36.820Z,87.16
2023-04-10T01:53:06.311Z,87.16
2023-04-10T01:55:34.522Z,86.67
2023-04-10T01:58:01.781Z,87.73
2023-04-10T02:00:29.014Z,87.30
2023-04-10T02:02:56.284Z,91.33
2023-04-10T02:05:28.762Z,96.83
2023-04-10T02:08:05.997Z,100.00
2023-04-10T02:10:52.350Z,100.00
2023-04-10T02:13:22.379Z,100.00
2023-04-10T02:15:52.371Z,100.00
2023-04-10T02:18:20.469Z,100.00
2023-04-10T02:20:47.876Z,100.00
2023-04-10T02:23:17.803Z,99.12
2023-04-10T02:25:45.237Z,97.87
2023-04-10T02:28:12.336Z,98.53
2023-04-10T02:30:39.685Z,97.14
2023-04-10T02:33:06.763Z,95.02
2023-04-10T02:35:37.905Z,93.68
2023-04-10T02:38:04.974Z,92.15
2023-04-10T02:40:32.105Z,91.75
2023-04-10T02:42:59.387Z,93.76
2023-04-10T02:45:26.428Z,94.42
2023-04-10T02:47:53.518Z,94.70
2023-04-10T02:50:20.716Z,95.45
2023-04-10T02:52:48.006Z,95.18
2023-04-10T02:55:15.107Z,93.61
2023-04-10T02:57:43.055Z,92.88
2023-04-10T03:00:19.699Z,94.62
2023-04-10T03:02:46.869Z,94.27
2023-04-10T03:05:13.937Z,98.78
2023-04-10T03:07:41.087Z,100.00
2023-04-10T03:10:08.881Z,99.09
2023-04-10T03:12:38.524Z,100.00
2023-04-10T03:15:06.566Z,100.00
2023-04-10T03:17:33.616Z,100.00
2023-04-10T03:20:00.678Z,99.72
2023-04-10T03:22:28.424Z,100.00
2023-04-10T03:24:55.836Z,98.56
2023-04-10T03:27:22.877Z,96.40
2023-04-10T03:29:49.826Z,96.09
2023-04-10T03:32:16.814Z,95.23
2023-04-10T03:34:44.145Z,93.82
2023-04-10T03:37:11.260Z,95.19
2023-04-10T03:39:38.286Z,96.49
2023-04-10T03:42:05.277Z,97.58
2023-04-10T03:44:32.395Z,100.00
2023-04-10T03:47:04.364Z,100.00
2023-04-10T03:49:31.475Z,100.00
2023-04-10T03:51:58.392Z,100.00
2023-04-10T03:54:25.597Z,100.00
2023-04-10T03:56:52.873Z,100.00
2023-04-10T03:59:20.627Z,100.00
2023-04-10T04:01:49.111Z,100.00
2023-04-10T04:04:17.184Z,100.00
2023-04-10T04:06:44.368Z,100.00
2023-04-10T04:09:13.961Z,100.00
2023-04-10T04:11:41.533Z,100.00
2023-04-10T04:14:17.745Z,100.00
2023-04-10T04:16:44.842Z,100.00
2023-04-10T04:19:12.009Z,100.00
2023-04-10T04:21:39.119Z,100.00
2023-04-10T04:24:06.495Z,100.00
2023-04-10T04:26:33.741Z,100.00
2023-04-10T04:29:00.752Z,100.00
2023-04-10T04:31:32.905Z,100.00
2023-04-10T04:34:00.771Z,100.00
2023-04-10T04:36:28.846Z,100.00
2023-04-10T04:38:55.886Z,100.00
2023-04-10T04:41:22.878Z,100.00
2023-04-10T04:43:49.976Z,100.00
2023-04-10T04:46:16.994Z,100.00
2023-04-10T04:48:44.002Z,100.00
2023-04-10T04:51:11.056Z,100.00
2023-04-10T04:53:38.021Z,92.86
2023-04-10T04:56:05.336Z,83.84
2023-04-10T04:58:32.294Z,78.79
2023-04-10T05:00:59.530Z,75.35
2023-04-10T05:03:28.928Z,72.00
2023-04-10T05:05:56.954Z,68.95
2023-04-10T05:08:24.063Z,66.87
2023-04-10T05:10:51.203Z,64.49
2023-04-10T05:13:18.195Z,63.42
2023-04-10T05:15:45.613Z,61.98
2023-04-10T05:18:13.995Z,60.33
2023-04-10T05:20:41.228Z,58.41
2023-04-10T05:23:08.238Z,57.37
2023-04-10T05:25:35.745Z,56.34
2023-04-10T05:28:02.667Z,55.26
2023-04-10T05:30:29.691Z,54.01
2023-04-10T05:32:57.043Z,52.98
2023-04-10T05:35:23.990Z,51.94
2023-04-10T05:37:50.933Z,51.36
2023-04-10T05:40:17.926Z,52.20
2023-04-10T05:42:44.925Z,50.79
2023-04-10T05:45:11.950Z,51.84
2023-04-10T05:47:39.227Z,51.28
2023-04-10T05:50:06.645Z,51.36
2023-04-10T05:52:33.585Z,51.69
2023-04-10T05:55:00.660Z,53.77
2023-04-10T05:57:27.753Z,53.30
2023-04-10T05:59:54.755Z,53.50
2023-04-10T06:02:22.119Z,53.95
2023-04-10T06:04:49.499Z,54.61
2023-04-10T06:07:16.881Z,53.66
2023-04-10T06:09:43.953Z,53.35
2023-04-10T06:12:11.014Z,53.62
2023-04-10T06:14:38.164Z,54.66
2023-04-10T06:17:05.167Z,53.72
2023-04-10T06:19:32.292Z,53.56
2023-04-10T06:21:59.509Z,54.07
2023-04-10T06:24:26.780Z,53.78
2023-04-10T06:26:54.020Z,53.48
2023-04-10T06:29:21.013Z,52.29
2023-04-10T06:31:48.069Z,52.49
2023-04-10T06:34:15.054Z,52.02
2023-04-10T06:36:42.046Z,52.52
2023-04-10T06:39:09.037Z,53.60
2023-04-10T06:41:36.130Z,52.99
2023-04-10T06:44:03.717Z,53.28
2023-04-10T06:46:30.916Z,55.29
2023-04-10T06:48:57.984Z,53.54
2023-04-10T06:51:25.114Z,56.47
2023-04-10T06:53:52.062Z,56.00
2023-04-10T06:56:19.054Z,57.36
2023-04-10T06:58:46.020Z,56.34
2023-04-10T07:01:13.028Z,55.76
2023-04-10T07:03:40.081Z,56.25
2023-04-10T07:06:08.608Z,54.96
2023-04-10T07:08:35.894Z,58.62
2023-04-10T07:11:02.915Z,56.69
2023-04-10T07:13:29.921Z,57.62
2023-04-10T07:15:57.062Z,56.93
2023-04-10T07:18:24.044Z,56.90
2023-04-10T07:20:52.164Z,57.47
2023-04-10T07:23:20.611Z,60.28
2023-04-10T07:25:47.624Z,60.52
2023-04-10T07:28:14.669Z,62.75
2023-04-10T07:30:41.701Z,62.26
2023-04-10T07:33:08.957Z,62.68
2023-04-10T07:35:36.896Z,61.32
2023-04-10T07:38:04.834Z,59.33
2023-04-10T07:40:31.856Z,60.09
2023-04-10T07:42:58.834Z,58.49
2023-04-10T07:45:26.548Z,58.65
2023-04-10T07:47:53.606Z,60.17
2023-04-10T07:50:20.652Z,57.66
2023-04-10T07:52:48.837Z,58.67
2023-04-10T07:55:16.069Z,57.84
2023-04-10T07:57:43.013Z,58.46
2023-04-10T08:00:10.517Z,59.65
2023-04-10T08:02:37.758Z,59.38
2023-04-10T08:05:05.244Z,60.37
2023-04-10T08:07:32.389Z,59.68
2023-04-10T08:09:59.374Z,64.42
2023-04-10T08:12:26.552Z,64.71
2023-04-10T08:14:53.568Z,62.17
2023-04-10T08:17:20.558Z,60.64
2023-04-10T08:19:47.584Z,67.53
2023-04-10T08:22:14.564Z,65.54
2023-04-10T08:24:41.456Z,65.50
2023-04-10T08:27:08.506Z,65.03
2023-04-10T08:29:35.406Z,64.29
2023-04-10T08:32:02.699Z,66.43
2023-04-10T08:34:29.734Z,64.08
2023-04-10T08:36:57.886Z,63.43
2023-04-10T08:39:25.149Z,64.49
2023-04-10T08:41:52.255Z,64.93
2023-04-10T08:44:19.244Z,62.44
2023-04-10T08:46:46.347Z,59.71
2023-04-10T08:49:24.984Z,58.29
2023-04-10T08:52:04.666Z,55.42
2023-04-10T08:54:33.966Z,57.16
2023-04-10T08:57:05.088Z,55.23
2023-04-10T08:59:32.486Z,55.06
2023-04-10T09:02:00.032Z,52.37
2023-04-10T09:04:27.762Z,52.55
2023-04-10T09:06:54.887Z,52.48
2023-04-10T09:09:21.903Z,49.92
2023-04-10T09:12:01.058Z,51.70
2023-04-10T09:14:34.267Z,57.81
2023-04-10T09:17:20.609Z,53.90
2023-04-10T09:19:49.848Z,51.28
2023-04-10T09:22:17.207Z,50.87
2023-04-10T09:24:47.466Z,51.84
2023-04-10T09:27:42.434Z,48.13
2023-04-10T09:30:09.696Z,45.17
2023-04-10T09:32:42.488Z,45.15
2023-04-10T09:35:15.054Z,44.57
2023-04-10T09:37:45.223Z,43.08
2023-04-10T09:40:24.199Z,46.18
2023-04-10T09:42:51.787Z,49.28
2023-04-10T09:45:22.796Z,48.24
2023-04-10T09:48:07.847Z,50.55
2023-04-10T09:50:40.440Z,48.81
2023-04-10T09:53:09.229Z,48.56
2023-04-10T09:55:37.295Z,49.76
2023-04-10T09:58:05.849Z,47.94
2023-04-10T10:00:46.341Z,47.10
2023-04-10T10:03:18.668Z,47.39
2023-04-10T10:05:49.011Z,43.21
2023-04-10T10:08:16.901Z,46.79
2023-04-10T10:10:57.649Z,45.51
2023-04-10T10:13:44.807Z,44.20
2023-04-10T10:16:29.640Z,45.82
2023-04-10T10:19:14.738Z,44.27
2023-04-10T10:21:44.882Z,43.09
2023-04-10T10:24:13.400Z,44.88
2023-04-10T10:26:40.949Z,46.84
2023-04-10T10:29:13.724Z,44.71
2023-04-10T10:31:41.002Z,42.41
2023-04-10T10:34:09.537Z,44.64
2023-04-10T10:36:37.890Z,44.17
2023-04-10T10:39:11.259Z,43.47
2023-04-10T10:41:45.317Z,41.60
2023-04-10T10:44:17.797Z,42.02
2023-04-10T10:47:06.029Z,42.09
2023-04-10T10:49:59.823Z,41.83
2023-04-10T10:52:43.333Z,45.91
2023-04-10T10:55:22.852Z,43.67
2023-04-10T10:57:50.641Z,48.03
2023-04-10T11:00:17.880Z,43.59
2023-04-10T11:02:45.493Z,44.99
2023-04-10T11:05:57.528Z,46.17
2023-04-10T11:08:48.875Z,44.88
2023-04-10T11:11:22.051Z,44.87
2023-04-10T11:13:52.393Z,43.99
2023-04-10T11:16:25.026Z,45.64
2023-04-10T11:19:02.832Z,43.51
2023-04-10T11:21:57.904Z,42.33
2023-04-10T11:24:24.989Z,42.73
2023-04-10T11:26:52.261Z,42.23
2023-04-10T11:29:28.569Z,43.70
2023-04-10T11:31:56.840Z,45.35
2023-04-10T11:34:24.406Z,46.32
2023-04-10T11:36:51.527Z,45.50
2023-04-10T11:39:20.662Z,45.70
2023-04-10T11:41:55.198Z,44.16
2023-04-10T11:44:32.818Z,43.92
2023-04-10T11:47:00.052Z,45.26
2023-04-10T11:49:34.932Z,44.03
2023-04-10T11:52:02.163Z,48.33
2023-04-10T11:54:30.265Z,46.44
2023-04-10T11:57:07.919Z,45.78
2023-04-10T11:59:35.741Z,45.28
2023-04-10T12:02:16.202Z,44.16
2023-04-10T12:04:44.693Z,44.49
2023-04-10T12:07:12.084Z,42.04
2023-04-10T12:09:39.330Z,43.72
2023-04-10T12:12:07.934Z,41.09
2023-04-10T12:14:39.938Z,40.91
2023-04-10T12:17:10.286Z,42.44
2023-04-10T12:19:38.774Z,39.96
2023-04-10T12:22:05.976Z,37.89
2023-04-10T12:24:47.679Z,40.58
2023-04-10T12:27:22.185Z,40.37
2023-04-10T12:29:51.457Z,38.48
2023-04-10T12:32:19.125Z,41.29
2023-04-10T12:35:01.663Z,40.68
2023-04-10T12:37:52.445Z,39.93
2023-04-10T12:40:20.957Z,40.27
2023-04-10T12:42:48.028Z,37.38
2023-04-10T12:45:15.578Z,38.68
2023-04-10T12:47:54.128Z,39.73
2023-04-10T12:50:21.471Z,38.03
2023-04-10T12:53:07.781Z,39.18
2023-04-10T12:55:34.870Z,38.42
2023-04-10T12:58:20.423Z,37.73
2023-04-10T13:00:48.254Z,34.87
2023-04-10T13:03:15.992Z,38.20
2023-04-10T13:05:43.189Z,40.39
2023-04-10T13:08:10.267Z,36.36
2023-04-10T13:10:38.524Z,35.59
2023-04-10T13:13:07.332Z,31.43
2023-04-10T13:15:35.094Z,38.02
2023-04-10T13:18:03.702Z,40.15
2023-04-10T13:20:34.118Z,38.76
2023-04-10T13:23:02.761Z,37.64
2023-04-10T13:25:34.763Z,37.81
2023-04-10T13:28:02.021Z,37.57
2023-04-10T13:30:29.673Z,39.31
2023-04-10T13:32:56.798Z,40.24
2023-04-10T13:35:23.978Z,39.66
2023-04-10T13:37:53.466Z,40.99
2023-04-10T13:40:21.646Z,40.32
2023-04-10T13:42:49.036Z,37.74
2023-04-10T13:45:16.206Z,38.68
2023-04-10T13:47:44.131Z,34.33
2023-04-10T13:50:11.620Z,33.79
2023-04-10T13:52:38.796Z,34.24
2023-04-10T13:55:06.806Z,34.21
2023-04-10T13:57:34.535Z,37.68
2023-04-10T14:00:01.836Z,33.71
2023-04-10T14:02:29.240Z,35.97
2023-04-10T14:04:56.329Z,37.27
2023-04-10T14:07:23.414Z,33.50
2023-04-10T14:09:50.599Z,33.13
2023-04-10T14:12:19.384Z,34.11
2023-04-10T14:14:46.512Z,34.04
2023-04-10T14:17:13.678Z,35.00
2023-04-10T14:19:42.014Z,36.14
2023-04-10T14:22:09.113Z,38.19
2023-04-10T14:24:36.185Z,37.70
2023-04-10T14:27:03.275Z,37.96
2023-04-10T14:29:36.309Z,37.91
2023-04-10T14:32:06.437Z,37.93
2023-04-10T14:34:33.538Z,38.38
2023-04-10T14:37:00.897Z,35.62
2023-04-10T14:39:28.159Z,34.93
2023-04-10T14:41:55.251Z,33.67
2023-04-10T14:44:22.431Z,34.00
2023-04-10T14:46:49.523Z,35.41
2023-04-10T14:49:16.722Z,34.66
2023-04-10T14:51:45.051Z,34.20
2023-04-10T14:54:12.451Z,33.68
2023-04-10T14:56:39.530Z,32.85
2023-04-10T14:59:07.323Z,33.68
2023-04-10T15:01:36.132Z,34.89
2023-04-10T15:04:03.234Z,36.60
2023-04-10T15:06:32.635Z,37.03
2023-04-10T15:08:59.915Z,37.04
2023-04-10T15:11:26.986Z,38.42
2023-04-10T15:13:54.495Z,39.02
2023-04-10T15:16:21.761Z,37.83
2023-04-10T15:18:49.682Z,37.70
2023-04-10T15:21:17.175Z,37.95
2023-04-10T15:23:44.204Z,38.44
2023-04-10T15:26:14.901Z,37.68
2023-04-10T15:28:46.109Z,37.46
2023-04-10T15:31:13.208Z,38.28
2023-04-10T15:33:40.388Z,38.59
2023-04-10T15:36:08.128Z,36.47
2023-04-10T15:38:36.037Z,35.51
2023-04-10T15:41:13.376Z,35.84
2023-04-10T15:43:40.566Z,36.36
2023-04-10T15:46:07.661Z,37.58
2023-04-10T15:48:34.801Z,38.56
2023-04-10T15:51:06.654Z,37.56
2023-04-10T15:53:35.286Z,38.53
2023-04-10T15:56:05.310Z,39.20
2023-04-10T15:58:32.776Z,38.47
2023-04-10T16:01:00.029Z,37.83
2023-04-10T16:03:29.498Z,39.40
2023-04-10T16:05:58.685Z,39.62
2023-04-10T16:08:26.585Z,40.91
2023-04-10T16:10:54.087Z,38.87
2023-04-10T16:13:21.219Z,39.46
2023-04-10T16:15:49.495Z,39.04
2023-04-10T16:18:16.627Z,39.85
2023-04-10T16:20:43.792Z,39.20
2023-04-10T16:23:10.973Z,37.84
2023-04-10T16:25:38.079Z,39.05
2023-04-10T16:28:08.208Z,39.00
2023-04-10T16:30:36.348Z,39.23
2023-04-10T16:33:04.434Z,40.02
2023-04-10T16:35:32.136Z,40.22
2023-04-10T16:37:59.239Z,40.00
2023-04-10T16:40:32.833Z,40.34
2023-04-10T16:43:01.269Z,40.93
2023-04-10T16:45:28.422Z,40.83
2023-04-10T16:47:55.605Z,41.08
2023-04-10T16:50:22.812Z,41.17
2023-04-10T16:52:51.925Z,41.09
2023-04-10T16:55:19.104Z,41.84
2023-04-10T16:57:46.903Z,41.43
2023-04-10T17:00:14.472Z,41.53
2023-04-10T17:02:43.173Z,41.19
2023-04-10T17:05:11.368Z,41.28
2023-04-10T17:07:38.536Z,41.28
2023-04-10T17:10:06.077Z,41.66
2023-04-10T17:12:33.144Z,41.99
2023-04-10T17:15:00.275Z,42.24
2023-04-10T17:17:27.383Z,41.93
2023-04-10T17:19:54.956Z,42.10
2023-04-10T17:22:23.593Z,42.03
2023-04-10T17:24:50.967Z,42.08
2023-04-10T17:27:17.975Z,42.06
2023-04-10T17:29:45.083Z,41.88
2023-04-10T17:32:12.173Z,42.51
2023-04-10T17:34:39.268Z,42.70
2023-04-10T17:37:06.282Z,43.10
2023-04-10T17:39:33.362Z,42.83
2023-04-10T17:42:00.494Z,42.36
2023-04-10T17:44:27.680Z,42.74
2023-04-10T17:46:54.787Z,42.62
2023-04-10T17:49:22.441Z,42.19
2023-04-10T17:51:50.044Z,43.58
2023-04-10T17:54:17.263Z,43.27
2023-04-10T17:56:44.405Z,42.80
2023-04-10T17:59:11.770Z,42.59
2023-04-10T18:01:39.212Z,43.33
2023-04-10T18:04:06.557Z,43.11
2023-04-10T18:06:33.865Z,44.10
2023-04-10T18:09:00.952Z,43.93
2023-04-10T18:11:28.847Z,44.13
2023-04-10T18:13:55.898Z,44.12
2023-04-10T18:16:23.047Z,44.07
2023-04-10T18:18:50.212Z,43.87
2023-04-10T18:21:17.226Z,44.06
2023-04-10T18:23:44.912Z,44.10
2023-04-10T18:26:12.193Z,44.20
2023-04-10T18:28:39.823Z,44.45
2023-04-10T18:31:08.652Z,44.66
2023-04-10T18:33:35.859Z,44.79
2023-04-10T18:36:03.749Z,44.46
2023-04-10T18:38:31.132Z,44.45
2023-04-10T18:40:59.730Z,44.26
2023-04-10T18:43:29.633Z,44.37
2023-04-10T18:45:57.255Z,44.14
2023-04-10T18:48:24.466Z,43.98
2023-04-10T18:50:56.312Z,44.53
2023-04-10T18:53:23.463Z,44.26
2023-04-10T18:55:55.015Z,44.21
2023-04-10T18:58:22.498Z,44.86
2023-04-10T19:00:50.152Z,45.39
2023-04-10T19:03:17.411Z,46.76
2023-04-10T19:05:44.877Z,48.76
2023-04-10T19:08:14.768Z,49.66
2023-04-10T19:10:42.437Z,47.31
2023-04-10T19:13:12.161Z,46.99
2023-04-10T19:15:43.019Z,47.32
2023-04-10T19:18:10.359Z,46.36
2023-04-10T19:20:50.375Z,45.94
2023-04-10T19:23:19.858Z,46.40
2023-04-10T19:25:47.320Z,47.34
2023-04-10T19:28:14.389Z,47.10
2023-04-10T19:30:41.462Z,47.38
2023-04-10T19:33:08.445Z,47.98
2023-04-10T19:35:35.511Z,48.13
2023-04-10T19:38:02.642Z,48.80
2023-04-10T19:40:31.275Z,49.18
2023-04-10T19:43:02.762Z,49.44
2023-04-10T19:45:29.858Z,50.10
2023-04-10T19:47:57.274Z,49.73
2023-04-10T19:50:24.772Z,50.30
2023-04-10T19:52:52.112Z,50.33
2023-04-10T19:55:19.427Z,50.64
2023-04-10T19:57:46.515Z,50.75
2023-04-10T20:00:14.093Z,50.46
2023-04-10T20:02:41.626Z,51.35
2023-04-10T20:05:09.414Z,51.55
2023-04-10T20:07:36.461Z,51.22
2023-04-10T20:10:04.706Z,51.74
2023-04-10T20:12:35.248Z,52.08
2023-04-10T20:15:03.906Z,51.99
2023-04-10T20:17:31.273Z,51.99
2023-04-10T20:19:58.778Z,52.74
2023-04-10T20:22:25.766Z,52.44
2023-04-10T20:24:52.827Z,53.82
2023-04-10T20:27:19.893Z,54.67
2023-04-10T20:29:46.979Z,54.91
2023-04-10T20:32:14.051Z,54.47
2023-04-10T20:34:41.020Z,53.60
2023-04-10T20:37:08.172Z,52.93
2023-04-10T20:39:36.238Z,53.68
2023-04-10T20:42:03.378Z,54.19
2023-04-10T20:44:30.381Z,55.10
2023-04-10T20:46:58.218Z,55.37
2023-04-10T20:49:45.212Z,55.01
2023-04-10T20:52:13.441Z,55.26
2023-04-10T20:54:41.439Z,53.88
2023-04-10T20:57:08.825Z,53.80
2023-04-10T20:59:36.818Z,54.38
2023-04-10T21:02:04.216Z,53.61
2023-04-10T21:04:52.721Z,53.40
2023-04-10T21:07:20.527Z,54.95
2023-04-10T21:09:49.642Z,54.95
2023-04-10T21:12:17.481Z,54.44
2023-04-10T21:14:44.917Z,56.16
2023-04-10T21:17:13.214Z,56.56
2023-04-10T21:19:40.113Z,57.41
2023-04-10T21:22:10.764Z,57.30
2023-04-10T21:24:38.016Z,57.16
2023-04-10T21:27:05.514Z,56.50
2023-04-10T21:29:33.065Z,56.72
2023-04-10T21:32:02.272Z,60.58
2023-04-10T21:34:35.720Z,63.39
2023-04-10T21:37:02.767Z,65.83
2023-04-10T21:39:30.417Z,65.47
2023-04-10T21:41:57.980Z,64.71
2023-04-10T21:44:25.968Z,64.15
2023-04-10T21:46:53.273Z,62.83
2023-04-10T21:49:20.548Z,62.44
2023-04-10T21:51:47.663Z,61.05
2023-04-10T21:54:14.854Z,59.05
2023-04-10T21:56:42.244Z,58.57
2023-04-10T21:59:09.283Z,59.85
2023-04-10T22:01:36.501Z,59.86
2023-04-10T22:04:03.819Z,60.67
2023-04-10T22:06:31.737Z,60.71
2023-04-10T22:08:58.795Z,60.08
2023-04-10T22:11:26.014Z,59.67
2023-04-10T22:13:53.656Z,59.32
2023-04-10T22:16:21.904Z,59.84
2023-04-10T22:18:49.018Z,59.57
2023-04-10T22:21:16.106Z,60.22
2023-04-10T22:23:43.044Z,59.30
2023-04-10T22:26:10.079Z,58.46
2023-04-10T22:28:37.177Z,58.25
2023-04-10T22:31:04.210Z,61.20
2023-04-10T22:33:34.412Z,60.99
2023-04-10T22:36:01.493Z,61.21
2023-04-10T22:38:28.601Z,61.72
2023-04-10T22:40:56.155Z,60.80
2023-04-10T22:43:23.200Z,60.79
2023-04-10T22:45:50.264Z,60.57
2023-04-10T22:48:17.301Z,62.43
2023-04-10T22:50:44.572Z,61.97
2023-04-10T22:53:12.434Z,63.04
2023-04-10T22:55:39.879Z,63.10
2023-04-10T22:58:07.926Z,63.49
2023-04-10T23:00:35.079Z,63.73
2023-04-10T23:03:02.322Z,62.41
2023-04-10T23:05:29.643Z,61.06
2023-04-10T23:07:56.604Z,59.80
2023-04-10T23:10:23.517Z,61.12
2023-04-10T23:12:50.702Z,61.10
2023-04-10T23:15:18.071Z,62.82
2023-04-10T23:17:45.796Z,61.85
2023-04-10T23:20:32.706Z,62.87
2023-04-10T23:23:00.145Z,62.45
2023-04-10T23:25:29.029Z,63.67
2023-04-10T23:27:56.486Z,65.41
2023-04-10T23:30:23.656Z,65.67
2023-04-10T23:32:53.016Z,73.30
2023-04-10T23:35:21.185Z,69.64
2023-04-10T23:37:53.447Z,69.63
2023-04-10T23:40:21.868Z,68.97
2023-04-10T23:42:48.787Z,67.65
2023-04-10T23:45:15.959Z,65.48
2023-04-10T23:47:42.954Z,65.29
2023-04-10T23:50:10.711Z,68.83
2023-04-10T23:52:59.619Z,73.18
2023-04-10T23:55:26.837Z,74.42
2023-04-10T23:57:53.798Z,74.36
